createdAt,value
2023-10-06T00:00:14.044Z,0.00
2023-10-06T00:01:14.036Z,0.00
2023-10-06T00:02:14.040Z,0.00
2023-10-06T00:03:13.985Z,0.00
2023-10-06T00:04:14.019Z,0.00
2023-10-06T00:05:13.968Z,0.00
2023-10-06T00:06:13.965Z,0.00
2023-10-06T00:07:13.951Z,0.00
2023-10-06T00:08:13.927Z,0.00
2023-10-06T00:09:13.942Z,0.00
2023-10-06T00:10:13.892Z,0.00
2023-10-06T00:11:13.886Z,0.00
2023-10-06T00:12:13.908Z,0.00
2023-10-06T00:13:13.847Z,0.00
2023-10-06T00:14:13.853Z,0.00
2023-10-06T00:15:13.835Z,0.00
2023-10-06T00:16:13.858Z,0.00
2023-10-06T00:17:13.868Z,0.00
2023-10-06T00:18:13.770Z,0.00
2023-10-06T00:19:13.896Z,0.00
2023-10-06T00:20:13.793Z,0.00
2023-10-06T00:21:13.783Z,0.00
2023-10-06T00:22:13.731Z,0.00
2023-10-06T00:23:13.725Z,0.00
2023-10-06T00:24:13.700Z,0.00
2023-10-06T00:25:13.714Z,0.00
2023-10-06T00:26:13.746Z,0.00
2023-10-06T00:27:13.668Z,0.00
2023-10-06T00:28:13.680Z,0.00
2023-10-06T00:29:13.622Z,0.00
2023-10-06T00:30:13.615Z,0.00
2023-10-06T00:31:13.693Z,0.00
2023-10-06T00:32:13.717Z,0.00
2023-10-06T00:33:13.595Z,0.00
2023-10-06T00:34:13.585Z,0.00
2023-10-06T00:35:13.620Z,0.00
2023-10-06T00:36:13.616Z,0.00
2023-10-06T00:37:13.523Z,0.00
2023-10-06T00:38:13.572Z,0.00
2023-10-06T00:39:13.514Z,0.00
2023-10-06T00:40:13.555Z,0.00
2023-10-06T00:41:13.512Z,0.00
2023-10-06T00:42:13.451Z,0.00
2023-10-06T00:43:13.502Z,0.00
2023-10-06T00:44:13.479Z,0.00
2023-10-06T00:45:13.545Z,0.00
2023-10-06T00:46:13.437Z,0.00
2023-10-06T00:47:13.434Z,0.00
2023-10-06T00:48:13.573Z,0.00
2023-10-06T00:49:13.439Z,0.00
2023-10-06T00:50:13.384Z,0.00
2023-10-06T00:51:13.339Z,0.00
2023-10-06T00:52:13.514Z,0.00
2023-10-06T00:53:13.319Z,0.00
2023-10-06T00:54:13.326Z,0.00
2023-10-06T00:55:13.353Z,0.00
2023-10-06T00:56:13.420Z,0.00
2023-10-06T00:57:13.291Z,0.00
2023-10-06T00:58:13.286Z,0.00
2023-10-06T00:59:13.286Z,0.00
2023-10-06T01:00:13.223Z,0.00
2023-10-06T01:01:13.231Z,0.00
2023-10-06T01:02:13.275Z,0.00
2023-10-06T01:03:13.262Z,0.00
2023-10-06T01:04:13.194Z,0.00
2023-10-06T01:05:13.157Z,0.00
2023-10-06T01:06:13.133Z,0.00
2023-10-06T01:07:13.160Z,0.00
2023-10-06T01:08:13.122Z,0.00
2023-10-06T01:09:13.117Z,0.00
2023-10-06T01:10:13.080Z,0.00
2023-10-06T01:11:13.112Z,0.00
2023-10-06T01:12:13.080Z,0.00
2023-10-06T01:13:13.084Z,0.00
2023-10-06T01:14:13.039Z,0.00
2023-10-06T01:15:13.014Z,0.00
2023-10-06T01:16:13.027Z,0.00
2023-10-06T01:17:13.089Z,0.00
2023-10-06T01:18:13.007Z,0.00
2023-10-06T01:19:13.054Z,0.00
2023-10-06T01:20:12.971Z,0.00
2023-10-06T01:21:12.957Z,0.00
2023-10-06T01:22:13.006Z,0.00
2023-10-06T01:23:12.955Z,0.00
2023-10-06T01:24:12.906Z,0.00
2023-10-06T01:25:12.906Z,0.00
2023-10-06T01:26:12.903Z,0.00
2023-10-06T01:27:12.904Z,0.00
2023-10-06T01:28:12.867Z,0.00
2023-10-06T01:29:12.918Z,0.00
2023-10-06T01:30:12.859Z,0.00
2023-10-06T01:31:12.919Z,0.00
2023-10-06T01:32:12.832Z,0.00
2023-10-06T01:33:12.832Z,0.00
2023-10-06T01:34:13.041Z,0.00
2023-10-06T01:35:12.770Z,0.00
2023-10-06T01:36:12.744Z,0.00
2023-10-06T01:37:12.755Z,0.00
2023-10-06T01:38:12.771Z,0.00
2023-10-06T01:39:12.760Z,0.00
2023-10-06T01:40:12.689Z,0.00
2023-10-06T01:41:12.665Z,0.00
2023-10-06T01:42:12.701Z,0.00
2023-10-06T01:43:12.675Z,0.00
2023-10-06T01:44:12.632Z,0.00
2023-10-06T01:45:12.641Z,0.00
2023-10-06T01:46:12.657Z,0.00
2023-10-06T01:47:12.681Z,0.00
2023-10-06T01:48:12.614Z,0.00
2023-10-06T01:49:14.694Z,0.00
2023-10-06T01:50:12.583Z,0.00
2023-10-06T01:51:12.615Z,0.00
2023-10-06T01:52:12.628Z,0.00
2023-10-06T01:53:12.527Z,0.00
2023-10-06T01:54:12.528Z,0.00
2023-10-06T01:55:12.504Z,0.00
2023-10-06T01:56:12.803Z,0.00
2023-10-06T01:57:12.524Z,0.00
2023-10-06T01:58:13.064Z,0.00
2023-10-06T01:59:12.543Z,0.00
2023-10-06T02:00:12.429Z,0.00
2023-10-06T02:01:12.511Z,0.00
2023-10-06T02:02:12.488Z,0.00
2023-10-06T02:03:12.495Z,0.00
2023-10-06T02:04:12.367Z,0.00
2023-10-06T02:05:12.504Z,0.00
2023-10-06T02:06:12.421Z,0.00
2023-10-06T02:07:12.352Z,0.00
2023-10-06T02:08:12.462Z,0.00
2023-10-06T02:09:12.390Z,0.00
2023-10-06T02:10:12.410Z,0.00
2023-10-06T02:11:12.362Z,0.00
2023-10-06T02:12:12.305Z,0.00
2023-10-06T02:13:12.283Z,0.00
2023-10-06T02:14:12.313Z,0.00
2023-10-06T02:15:12.263Z,0.00
2023-10-06T02:16:12.227Z,0.00
2023-10-06T02:17:12.328Z,0.00
2023-10-06T02:18:12.228Z,0.00
2023-10-06T02:19:12.258Z,0.00
2023-10-06T02:20:12.320Z,0.00
2023-10-06T02:21:12.197Z,0.00
2023-10-06T02:22:12.416Z,0.00
2023-10-06T02:23:12.146Z,0.00
2023-10-06T02:24:12.129Z,0.00
2023-10-06T02:25:12.218Z,0.00
2023-10-06T02:26:12.085Z,0.00
2023-10-06T02:27:12.139Z,0.00
2023-10-06T02:28:12.056Z,0.00
2023-10-06T02:29:12.080Z,0.00
2023-10-06T02:30:12.169Z,0.00
2023-10-06T02:31:12.156Z,0.00
2023-10-06T02:32:12.023Z,0.00
2023-10-06T02:33:11.989Z,0.00
2023-10-06T02:34:12.143Z,0.00
2023-10-06T02:35:12.095Z,0.00
2023-10-06T02:36:11.969Z,0.00
2023-10-06T02:37:11.981Z,0.00
2023-10-06T02:38:11.975Z,0.00
2023-10-06T02:39:11.983Z,0.00
2023-10-06T02:40:11.948Z,0.00
2023-10-06T02:41:11.919Z,0.00
2023-10-06T02:42:11.923Z,0.00
2023-10-06T02:43:11.912Z,0.00
2023-10-06T02:44:11.911Z,0.00
2023-10-06T02:45:11.837Z,0.00
2023-10-06T02:46:11.824Z,0.00
2023-10-06T02:47:12.315Z,0.00
2023-10-06T02:48:11.824Z,0.00
2023-10-06T02:49:11.773Z,0.00
2023-10-06T02:50:11.826Z,0.00
2023-10-06T02:51:11.742Z,0.00
2023-10-06T02:52:11.744Z,0.00
2023-10-06T02:53:11.787Z,0.00
2023-10-06T02:54:11.701Z,0.00
2023-10-06T02:55:11.695Z,0.00
2023-10-06T02:56:11.708Z,0.00
2023-10-06T02:57:11.716Z,0.00
2023-10-06T02:58:11.652Z,0.00
2023-10-06T02:59:11.693Z,0.00
2023-10-06T03:00:11.631Z,0.00
2023-10-06T03:01:11.701Z,0.00
2023-10-06T03:02:11.709Z,0.00
2023-10-06T03:03:11.791Z,0.00
2023-10-06T03:04:11.570Z,0.00
2023-10-06T03:05:11.806Z,0.00
2023-10-06T03:06:11.565Z,0.00
2023-10-06T03:07:11.601Z,0.00
2023-10-06T03:08:11.564Z,0.00
2023-10-06T03:09:11.559Z,0.00
2023-10-06T03:10:11.489Z,0.00
2023-10-06T03:11:11.574Z,0.00
2023-10-06T03:12:11.518Z,0.00
2023-10-06T03:13:11.473Z,0.00
2023-10-06T03:14:11.481Z,0.00
2023-10-06T03:15:11.452Z,0.00
2023-10-06T03:16:11.568Z,0.00
2023-10-06T03:17:11.492Z,0.00
2023-10-06T03:18:11.401Z,0.00
2023-10-06T03:19:11.516Z,0.00
2023-10-06T03:20:11.407Z,0.00
2023-10-06T03:21:11.403Z,0.00
2023-10-06T03:22:11.341Z,0.00
2023-10-06T03:23:11.356Z,0.00
2023-10-06T03:24:11.303Z,0.00
2023-10-06T03:25:11.392Z,0.00
2023-10-06T03:26:11.359Z,0.00
2023-10-06T03:27:11.297Z,0.00
2023-10-06T03:28:11.310Z,0.00
2023-10-06T03:29:11.503Z,0.00
2023-10-06T03:30:11.260Z,0.00
2023-10-06T03:31:11.293Z,0.00
2023-10-06T03:32:11.253Z,0.00
2023-10-06T03:33:11.268Z,0.00
2023-10-06T03:34:11.192Z,0.00
2023-10-06T03:35:11.363Z,0.00
2023-10-06T03:36:11.179Z,0.00
2023-10-06T03:37:11.155Z,0.00
2023-10-06T03:38:11.174Z,0.00
2023-10-06T03:39:11.251Z,0.00
2023-10-06T03:40:11.182Z,0.00
2023-10-06T03:41:11.152Z,0.00
2023-10-06T03:42:11.082Z,0.00
2023-10-06T03:43:11.060Z,0.00
2023-10-06T03:44:11.147Z,0.00
2023-10-06T03:45:11.140Z,0.00
2023-10-06T03:46:11.180Z,0.00
2023-10-06T03:47:11.037Z,0.00
2023-10-06T03:48:10.990Z,0.00
2023-10-06T03:49:11.229Z,0.00
2023-10-06T03:50:11.001Z,0.00
2023-10-06T03:51:11.046Z,0.00
2023-10-06T03:52:11.304Z,0.00
2023-10-06T03:53:11.001Z,0.00
2023-10-06T03:54:10.937Z,0.00
2023-10-06T03:55:11.003Z,0.00
2023-10-06T03:56:10.967Z,0.00
2023-10-06T03:57:10.891Z,0.00
2023-10-06T03:58:10.896Z,0.00
2023-10-06T03:59:11.091Z,0.00
2023-10-06T04:00:10.850Z,0.00
2023-10-06T04:01:10.818Z,0.00
2023-10-06T04:02:10.870Z,0.00
2023-10-06T04:03:11.244Z,0.00
2023-10-06T04:04:10.881Z,0.00
2023-10-06T04:05:10.859Z,0.00
2023-10-06T04:06:10.750Z,0.00
2023-10-06T04:07:10.822Z,0.00
2023-10-06T04:08:10.810Z,0.00
2023-10-06T04:09:11.004Z,0.00
2023-10-06T04:10:10.691Z,0.00
2023-10-06T04:11:10.808Z,0.00
2023-10-06T04:12:10.689Z,0.00
2023-10-06T04:13:10.724Z,0.00
2023-10-06T04:14:10.816Z,0.00
2023-10-06T04:15:10.649Z,0.00
2023-10-06T04:16:10.625Z,0.00
2023-10-06T04:17:10.743Z,0.00
2023-10-06T04:18:10.674Z,0.00
2023-10-06T04:19:11.003Z,0.00
2023-10-06T04:20:10.695Z,0.00
2023-10-06T04:21:10.690Z,0.00
2023-10-06T04:22:10.656Z,0.00
2023-10-06T04:23:10.584Z,0.00
2023-10-06T04:24:10.569Z,0.00
2023-10-06T04:25:10.547Z,0.00
2023-10-06T04:26:10.545Z,0.00
2023-10-06T04:27:10.531Z,0.00
2023-10-06T04:28:10.480Z,0.00
2023-10-06T04:29:11.049Z,0.00
2023-10-06T04:30:10.443Z,0.00
2023-10-06T04:31:10.513Z,0.00
2023-10-06T04:32:10.472Z,0.00
2023-10-06T04:33:10.413Z,0.00
2023-10-06T04:34:10.400Z,0.00
2023-10-06T04:35:10.430Z,0.00
2023-10-06T04:36:10.390Z,0.00
2023-10-06T04:37:10.405Z,0.00
2023-10-06T04:38:10.429Z,0.00
2023-10-06T04:39:10.557Z,0.00
2023-10-06T04:40:10.378Z,0.00
2023-10-06T04:41:10.806Z,0.00
2023-10-06T04:42:10.282Z,0.00
2023-10-06T04:43:10.326Z,0.00
2023-10-06T04:44:10.332Z,0.00
2023-10-06T04:45:10.258Z,0.00
2023-10-06T04:46:10.256Z,0.00
2023-10-06T04:47:10.336Z,0.00
2023-10-06T04:48:10.231Z,0.00
2023-10-06T04:49:11.255Z,0.00
2023-10-06T04:50:10.599Z,0.00
2023-10-06T04:51:10.222Z,0.00
2023-10-06T04:52:10.178Z,0.00
2023-10-06T04:53:10.171Z,0.00
2023-10-06T04:54:10.210Z,0.00
2023-10-06T04:55:10.144Z,0.00
2023-10-06T04:56:10.342Z,0.00
2023-10-06T04:57:10.067Z,0.00
2023-10-06T04:58:10.065Z,0.00
2023-10-06T04:59:10.247Z,0.00
2023-10-06T05:00:10.088Z,0.00
2023-10-06T05:01:10.117Z,0.00
2023-10-06T05:02:10.097Z,0.00
2023-10-06T05:03:10.062Z,0.00
2023-10-06T05:04:10.036Z,4.00
2023-10-06T05:05:10.120Z,4.00
2023-10-06T05:06:09.963Z,4.00
2023-10-06T05:07:09.968Z,4.00
2023-10-06T05:08:10.015Z,0.00
2023-10-06T05:09:10.087Z,4.00
2023-10-06T05:10:09.953Z,4.00
2023-10-06T05:11:12.140Z,4.00
2023-10-06T05:12:09.945Z,4.00
2023-10-06T05:13:09.877Z,8.00
2023-10-06T05:14:10.124Z,8.00
2023-10-06T05:15:09.852Z,8.00
2023-10-06T05:16:09.914Z,8.00
2023-10-06T05:17:09.842Z,12.00
2023-10-06T05:18:09.865Z,16.00
2023-10-06T05:19:09.978Z,16.00
2023-10-06T05:20:09.831Z,16.00
2023-10-06T05:21:09.800Z,20.00
2023-10-06T05:22:09.762Z,24.00
2023-10-06T05:23:09.863Z,32.00
2023-10-06T05:24:09.734Z,32.00
2023-10-06T05:25:10.167Z,36.00
2023-10-06T05:26:09.756Z,36.00
2023-10-06T05:27:09.726Z,40.00
2023-10-06T05:28:09.749Z,44.00
2023-10-06T05:29:09.834Z,48.00
2023-10-06T05:30:09.658Z,60.00
2023-10-06T05:31:09.663Z,72.00
2023-10-06T05:32:09.694Z,80.00
2023-10-06T05:33:09.668Z,88.00
2023-10-06T05:34:09.591Z,96.00
2023-10-06T05:35:09.586Z,104.00
2023-10-06T05:36:09.568Z,112.00
2023-10-06T05:37:09.600Z,128.00
2023-10-06T05:38:09.593Z,140.00
2023-10-06T05:39:09.869Z,148.00
2023-10-06T05:40:09.512Z,156.00
2023-10-06T05:41:09.516Z,168.00
2023-10-06T05:42:09.548Z,180.00
2023-10-06T05:43:09.500Z,200.00
2023-10-06T05:44:09.527Z,240.00
2023-10-06T05:45:09.494Z,288.00
2023-10-06T05:46:09.444Z,352.00
2023-10-06T05:47:09.726Z,404.00
2023-10-06T05:48:09.456Z,432.00
2023-10-06T05:49:09.476Z,436.00
2023-10-06T05:50:09.486Z,432.00
2023-10-06T05:51:09.390Z,432.00
2023-10-06T05:52:09.374Z,428.00
2023-10-06T05:53:09.419Z,424.00
2023-10-06T05:54:09.390Z,444.00
2023-10-06T05:55:09.329Z,476.00
2023-10-06T05:56:09.392Z,476.00
2023-10-06T05:57:09.302Z,456.00
2023-10-06T05:58:09.269Z,432.00
2023-10-06T05:59:09.502Z,440.00
2023-10-06T06:00:09.304Z,508.00
2023-10-06T06:01:09.278Z,672.00
2023-10-06T06:02:09.341Z,796.00
2023-10-06T06:03:09.285Z,888.00
2023-10-06T06:04:09.248Z,792.00
2023-10-06T06:05:09.216Z,720.00
2023-10-06T06:06:09.326Z,700.00
2023-10-06T06:07:09.193Z,752.00
2023-10-06T06:08:09.173Z,772.00
2023-10-06T06:09:09.345Z,796.00
2023-10-06T06:10:09.165Z,868.00
2023-10-06T06:11:09.131Z,896.00
2023-10-06T06:12:09.124Z,904.00
2023-10-06T06:13:09.070Z,908.00
2023-10-06T06:14:17.543Z,904.00
2023-10-06T06:15:10.047Z,896.00
2023-10-06T06:16:09.057Z,908.00
2023-10-06T06:17:09.115Z,848.00
2023-10-06T06:18:09.071Z,856.00
2023-10-06T06:19:09.125Z,856.00
2023-10-06T06:20:18.366Z,752.00
2023-10-06T06:21:09.979Z,796.00
2023-10-06T06:22:08.983Z,908.00
2023-10-06T06:23:08.984Z,1108.00
2023-10-06T06:24:08.937Z,1148.00
2023-10-06T06:25:08.975Z,1072.00
2023-10-06T06:26:08.918Z,836.00
2023-10-06T06:27:08.937Z,668.00
2023-10-06T06:28:08.899Z,696.00
2023-10-06T06:29:09.090Z,740.00
2023-10-06T06:30:08.848Z,708.00
2023-10-06T06:31:08.914Z,736.00
2023-10-06T06:32:08.881Z,780.00
2023-10-06T06:33:08.897Z,844.00
2023-10-06T06:34:08.802Z,1080.00
2023-10-06T06:35:08.812Z,1268.00
2023-10-06T06:36:08.769Z,1312.00
2023-10-06T06:37:08.764Z,1404.00
2023-10-06T06:38:08.805Z,1476.00
2023-10-06T06:39:08.897Z,1504.00
2023-10-06T06:40:08.814Z,1440.00
2023-10-06T06:41:08.732Z,1404.00
2023-10-06T06:42:08.705Z,1392.00
2023-10-06T06:43:08.701Z,1484.00
2023-10-06T06:44:08.730Z,1684.00
2023-10-06T06:45:08.643Z,1652.00
2023-10-06T06:46:08.667Z,1596.00
2023-10-06T06:47:08.667Z,1596.00
2023-10-06T06:48:08.623Z,1544.00
2023-10-06T06:49:08.928Z,1340.00
2023-10-06T06:50:09.319Z,1276.00
2023-10-06T06:51:08.565Z,1356.00
2023-10-06T06:52:08.565Z,1188.00
2023-10-06T06:53:08.593Z,1116.00
2023-10-06T06:54:08.569Z,1164.00
2023-10-06T06:55:08.541Z,1248.00
2023-10-06T06:56:08.520Z,1424.00
2023-10-06T06:57:08.499Z,1616.00
2023-10-06T06:58:08.499Z,1696.00
2023-10-06T06:59:08.788Z,1752.00
2023-10-06T07:00:08.506Z,1560.00
2023-10-06T07:01:08.500Z,1664.00
2023-10-06T07:02:08.568Z,1648.00
2023-10-06T07:03:08.521Z,1552.00
2023-10-06T07:04:08.439Z,1272.00
2023-10-06T07:05:08.442Z,900.00
2023-10-06T07:06:08.367Z,1300.00
2023-10-06T07:07:08.369Z,1620.00
2023-10-06T07:08:08.598Z,1704.00
2023-10-06T07:09:08.565Z,1460.00
2023-10-06T07:10:08.328Z,1512.00
2023-10-06T07:11:08.314Z,1532.00
2023-10-06T07:12:08.370Z,1416.00
2023-10-06T07:13:08.272Z,1196.00
2023-10-06T07:14:08.340Z,1136.00
2023-10-06T07:15:08.246Z,1020.00
2023-10-06T07:16:08.276Z,1112.00
2023-10-06T07:17:08.309Z,1184.00
2023-10-06T07:18:08.361Z,1304.00
2023-10-06T07:19:08.443Z,1552.00
2023-10-06T07:20:08.298Z,1644.00
2023-10-06T07:21:08.303Z,1856.00
2023-10-06T07:22:08.171Z,2060.00
2023-10-06T07:23:08.203Z,2008.00
2023-10-06T07:24:08.153Z,2220.00
2023-10-06T07:25:08.122Z,2436.00
2023-10-06T07:26:08.305Z,2440.00
2023-10-06T07:27:08.293Z,1868.00
2023-10-06T07:28:08.286Z,1824.00
2023-10-06T07:29:08.408Z,1916.00
2023-10-06T07:30:08.075Z,1784.00
2023-10-06T07:31:08.065Z,1524.00
2023-10-06T07:32:08.119Z,1660.00
2023-10-06T07:33:08.082Z,1496.00
2023-10-06T07:34:10.849Z,1592.00
2023-10-06T07:35:08.101Z,2072.00
2023-10-06T07:36:08.049Z,2444.00
2023-10-06T07:37:07.955Z,2436.00
2023-10-06T07:38:08.021Z,2132.00
2023-10-06T07:39:08.084Z,2120.00
2023-10-06T07:40:07.939Z,2164.00
2023-10-06T07:41:08.078Z,2420.00
2023-10-06T07:42:07.976Z,2400.00
2023-10-06T07:43:07.953Z,2232.00
2023-10-06T07:44:08.129Z,2472.00
2023-10-06T07:45:07.867Z,2404.00
2023-10-06T07:46:07.868Z,2196.00
2023-10-06T07:47:07.839Z,2336.00
2023-10-06T07:48:07.825Z,2304.00
2023-10-06T07:49:07.810Z,1600.00
2023-10-06T07:50:07.906Z,1376.00
2023-10-06T07:51:07.823Z,1392.00
2023-10-06T07:52:07.773Z,1312.00
2023-10-06T07:53:07.936Z,1360.00
2023-10-06T07:54:09.798Z,1404.00
2023-10-06T07:55:07.734Z,1488.00
2023-10-06T07:56:07.843Z,1584.00
2023-10-06T07:57:07.774Z,1812.00
2023-10-06T07:58:07.677Z,2340.00
2023-10-06T07:59:07.857Z,2708.00
2023-10-06T08:00:07.668Z,2836.00
2023-10-06T08:01:07.682Z,3016.00
2023-10-06T08:02:07.647Z,3184.00
2023-10-06T08:03:07.776Z,3204.00
2023-10-06T08:04:07.835Z,3264.00
2023-10-06T08:05:07.593Z,3256.00
2023-10-06T08:06:07.592Z,2832.00
2023-10-06T08:07:07.572Z,2344.00
2023-10-06T08:08:07.657Z,2764.00
2023-10-06T08:09:07.574Z,2784.00
2023-10-06T08:10:07.577Z,3104.00
2023-10-06T08:11:07.723Z,3252.00
2023-10-06T08:12:07.500Z,2752.00
2023-10-06T08:13:07.532Z,2328.00
2023-10-06T08:14:07.600Z,1932.00
2023-10-06T08:15:07.453Z,1928.00
2023-10-06T08:16:07.479Z,1852.00
2023-10-06T08:17:07.537Z,2308.00
2023-10-06T08:18:07.509Z,2188.00
2023-10-06T08:19:07.390Z,1456.00
2023-10-06T08:20:07.459Z,1604.00
2023-10-06T08:21:07.378Z,1284.00
2023-10-06T08:22:07.392Z,1564.00
2023-10-06T08:23:07.385Z,1784.00
2023-10-06T08:24:07.584Z,1800.00
2023-10-06T08:25:07.340Z,1508.00
2023-10-06T08:26:07.334Z,1408.00
2023-10-06T08:27:07.315Z,1420.00
2023-10-06T08:28:07.288Z,2232.00
2023-10-06T08:29:07.320Z,2340.00
2023-10-06T08:30:07.270Z,2540.00
2023-10-06T08:31:07.279Z,1848.00
2023-10-06T08:32:07.268Z,2120.00
2023-10-06T08:33:07.336Z,2704.00
2023-10-06T08:34:07.410Z,2608.00
2023-10-06T08:35:07.219Z,1712.00
2023-10-06T08:36:07.216Z,1920.00
2023-10-06T08:37:07.188Z,2144.00
2023-10-06T08:38:07.161Z,2280.00
2023-10-06T08:39:07.133Z,2556.00
2023-10-06T08:40:07.126Z,2564.00
2023-10-06T08:41:07.170Z,1756.00
2023-10-06T08:42:07.174Z,1948.00
2023-10-06T08:43:07.085Z,1476.00
2023-10-06T08:44:07.184Z,1792.00
2023-10-06T08:45:07.077Z,2552.00
2023-10-06T08:46:07.116Z,2388.00
2023-10-06T08:47:20.300Z,2924.00
2023-10-06T08:48:08.441Z,3444.00
2023-10-06T08:49:07.190Z,3184.00
2023-10-06T08:50:07.031Z,3260.00
2023-10-06T08:51:07.000Z,3828.00
2023-10-06T08:52:06.991Z,4416.00
2023-10-06T08:53:07.042Z,4436.00
2023-10-06T08:54:07.095Z,4060.00
2023-10-06T08:55:06.960Z,3816.00
2023-10-06T08:56:07.005Z,3480.00
2023-10-06T08:57:06.910Z,2540.00
2023-10-06T08:58:06.900Z,2484.00
2023-10-06T08:59:06.917Z,2788.00
2023-10-06T09:00:06.922Z,2472.00
2023-10-06T09:01:07.002Z,2264.00
2023-10-06T09:02:06.863Z,1976.00
2023-10-06T09:03:06.929Z,1668.00
2023-10-06T09:04:06.876Z,1800.00
2023-10-06T09:05:06.814Z,1976.00
2023-10-06T09:06:06.769Z,1880.00
2023-10-06T09:07:06.947Z,2052.00
2023-10-06T09:08:06.823Z,2240.00
2023-10-06T09:09:06.753Z,1996.00
2023-10-06T09:10:06.753Z,2592.00
2023-10-06T09:11:06.791Z,3104.00
2023-10-06T09:12:06.715Z,3204.00
2023-10-06T09:13:06.695Z,2516.00
2023-10-06T09:14:06.738Z,2720.00
2023-10-06T09:15:06.685Z,2168.00
2023-10-06T09:16:06.685Z,2972.00
2023-10-06T09:17:06.670Z,2916.00
2023-10-06T09:18:06.677Z,2244.00
2023-10-06T09:19:07.268Z,1956.00
2023-10-06T09:20:16.740Z,1740.00
2023-10-06T09:21:07.597Z,1856.00
2023-10-06T09:22:06.572Z,2088.00
2023-10-06T09:23:06.577Z,2444.00
2023-10-06T09:24:06.636Z,1928.00
2023-10-06T09:25:06.547Z,1720.00
2023-10-06T09:26:06.653Z,1584.00
2023-10-06T09:27:06.515Z,1840.00
2023-10-06T09:28:06.535Z,1860.00
2023-10-06T09:29:06.533Z,1920.00
2023-10-06T09:30:06.473Z,1892.00
2023-10-06T09:31:06.973Z,2068.00
2023-10-06T09:32:06.465Z,1900.00
2023-10-06T09:33:06.510Z,1796.00
2023-10-06T09:34:06.459Z,2080.00
2023-10-06T09:35:06.437Z,2764.00
2023-10-06T09:36:06.443Z,2856.00
2023-10-06T09:37:06.371Z,2384.00
2023-10-06T09:38:06.391Z,2332.00
2023-10-06T09:39:06.370Z,2640.00
2023-10-06T09:40:06.335Z,2668.00
2023-10-06T09:41:06.416Z,2416.00
2023-10-06T09:42:06.299Z,2568.00
2023-10-06T09:43:06.303Z,2408.00
2023-10-06T09:44:06.323Z,2604.00
2023-10-06T09:45:06.300Z,2404.00
2023-10-06T09:46:06.317Z,2468.00
2023-10-06T09:47:06.318Z,2732.00
2023-10-06T09:48:06.394Z,2960.00
2023-10-06T09:49:06.239Z,3156.00
2023-10-06T09:50:06.261Z,3036.00
2023-10-06T09:51:06.214Z,3556.00
2023-10-06T09:52:06.214Z,3980.00
2023-10-06T09:53:06.178Z,3180.00
2023-10-06T09:54:06.174Z,3044.00
2023-10-06T09:55:06.176Z,2964.00
2023-10-06T09:56:06.183Z,3328.00
2023-10-06T09:57:06.138Z,2820.00
2023-10-06T09:58:06.097Z,3208.00
2023-10-06T09:59:06.091Z,2720.00
2023-10-06T10:00:06.099Z,2912.00
2023-10-06T10:01:06.194Z,2888.00
2023-10-06T10:02:06.914Z,3548.00
2023-10-06T10:03:06.115Z,3404.00
2023-10-06T10:04:06.095Z,2940.00
2023-10-06T10:05:06.074Z,2492.00
2023-10-06T10:06:06.248Z,2728.00
2023-10-06T10:07:05.995Z,2972.00
2023-10-06T10:08:06.007Z,2768.00
2023-10-06T10:09:05.944Z,2844.00
2023-10-06T10:10:05.942Z,2712.00
2023-10-06T10:11:06.044Z,2700.00
2023-10-06T10:12:05.931Z,3408.00
2023-10-06T10:13:05.892Z,2920.00
2023-10-06T10:14:05.935Z,2840.00
2023-10-06T10:15:05.878Z,2968.00
2023-10-06T10:16:05.976Z,3044.00
2023-10-06T10:17:05.900Z,3412.00
2023-10-06T10:18:05.908Z,3352.00
2023-10-06T10:19:05.829Z,4140.00
2023-10-06T10:20:05.846Z,3472.00
2023-10-06T10:21:05.848Z,3448.00
2023-10-06T10:22:05.798Z,2908.00
2023-10-06T10:23:05.805Z,1988.00
2023-10-06T10:24:35.576Z,1636.00
2023-10-06T10:25:24.071Z,1588.00
2023-10-06T10:26:06.794Z,1592.00
2023-10-06T10:27:05.717Z,1872.00
2023-10-06T10:28:05.725Z,1660.00
2023-10-06T10:29:05.691Z,1716.00
2023-10-06T10:30:05.748Z,1564.00
2023-10-06T10:31:05.703Z,1756.00
2023-10-06T10:32:05.843Z,2068.00
2023-10-06T10:33:05.716Z,2248.00
2023-10-06T10:34:22.848Z,2416.00
2023-10-06T10:35:06.706Z,2380.00
2023-10-06T10:36:05.607Z,2084.00
2023-10-06T10:37:05.651Z,2312.00
2023-10-06T10:38:06.268Z,2076.00
2023-10-06T10:39:05.629Z,1972.00
2023-10-06T10:40:05.595Z,2364.00
2023-10-06T10:41:05.565Z,2224.00
2023-10-06T10:42:05.507Z,1780.00
2023-10-06T10:43:05.560Z,1780.00
2023-10-06T10:44:22.754Z,1972.00
2023-10-06T10:45:06.487Z,1708.00
2023-10-06T10:46:05.599Z,1608.00
2023-10-06T10:47:05.451Z,1708.00
2023-10-06T10:48:05.500Z,1812.00
2023-10-06T10:49:05.429Z,1748.00
2023-10-06T10:50:05.433Z,1740.00
2023-10-06T10:51:05.417Z,1784.00
2023-10-06T10:52:05.415Z,1936.00
2023-10-06T10:53:05.427Z,2276.00
2023-10-06T10:54:05.360Z,2576.00
2023-10-06T10:55:05.352Z,2736.00
2023-10-06T10:56:05.921Z,2572.00
2023-10-06T10:57:05.327Z,2992.00
2023-10-06T10:58:05.307Z,2540.00
2023-10-06T10:59:05.332Z,2432.00
2023-10-06T11:00:05.280Z,2712.00
2023-10-06T11:01:05.301Z,2732.00
2023-10-06T11:02:05.343Z,2572.00
2023-10-06T11:03:05.297Z,2836.00
2023-10-06T11:04:05.230Z,3420.00
2023-10-06T11:05:05.310Z,3396.00
2023-10-06T11:06:05.232Z,3356.00
2023-10-06T11:07:05.193Z,3380.00
2023-10-06T11:08:05.454Z,3684.00
2023-10-06T11:09:05.176Z,3656.00
2023-10-06T11:10:05.172Z,4504.00
2023-10-06T11:11:05.305Z,4352.00
2023-10-06T11:12:23.111Z,4336.00
2023-10-06T11:13:06.123Z,4356.00
2023-10-06T11:14:06.780Z,4216.00
2023-10-06T11:15:05.152Z,4144.00
2023-10-06T11:16:05.069Z,4016.00
2023-10-06T11:17:05.075Z,4200.00
2023-10-06T11:18:05.068Z,4180.00
2023-10-06T11:19:05.061Z,4672.00
2023-10-06T11:20:05.771Z,4556.00
2023-10-06T11:21:05.006Z,5196.00
2023-10-06T11:22:05.002Z,3944.00
2023-10-06T11:23:05.038Z,3996.00
2023-10-06T11:24:04.970Z,3208.00
2023-10-06T11:25:05.057Z,3580.00
2023-10-06T11:26:04.949Z,3800.00
2023-10-06T11:27:05.021Z,3340.00
2023-10-06T11:28:04.979Z,4024.00
2023-10-06T11:29:04.957Z,4356.00
2023-10-06T11:30:04.946Z,5104.00
2023-10-06T11:31:04.885Z,6132.00
2023-10-06T11:32:05.072Z,4896.00
2023-10-06T11:33:04.936Z,4584.00
2023-10-06T11:34:04.881Z,4224.00
2023-10-06T11:35:04.855Z,4512.00
2023-10-06T11:36:04.793Z,4072.00
2023-10-06T11:37:04.798Z,4052.00
2023-10-06T11:38:04.856Z,4172.00
2023-10-06T11:39:04.754Z,5412.00
2023-10-06T11:40:04.727Z,5556.00
2023-10-06T11:41:04.749Z,5164.00
2023-10-06T11:42:04.757Z,4964.00
2023-10-06T11:43:04.729Z,5520.00
2023-10-06T11:44:04.841Z,6040.00
2023-10-06T11:45:04.694Z,5892.00
2023-10-06T11:46:04.673Z,4608.00
2023-10-06T11:47:04.708Z,5040.00
2023-10-06T11:48:04.741Z,3896.00
2023-10-06T11:49:04.684Z,3364.00
2023-10-06T11:50:04.756Z,3208.00
2023-10-06T11:51:04.601Z,2872.00
2023-10-06T11:52:04.583Z,3100.00
2023-10-06T11:53:04.596Z,2680.00
2023-10-06T11:54:04.678Z,3572.00
2023-10-06T11:55:04.567Z,3820.00
2023-10-06T11:56:04.558Z,3388.00
2023-10-06T11:57:04.514Z,4204.00
2023-10-06T11:58:04.532Z,5024.00
2023-10-06T11:59:04.530Z,4688.00
2023-10-06T12:00:04.490Z,4984.00
2023-10-06T12:01:04.512Z,3792.00
2023-10-06T12:02:04.552Z,3720.00
2023-10-06T12:03:04.529Z,4472.00
2023-10-06T12:04:04.473Z,4580.00
2023-10-06T12:05:04.494Z,4260.00
2023-10-06T12:06:04.395Z,3752.00
2023-10-06T12:07:04.374Z,4284.00
2023-10-06T12:08:04.759Z,2956.00
2023-10-06T12:09:04.412Z,2192.00
2023-10-06T12:10:04.391Z,2896.00
2023-10-06T12:11:04.500Z,3200.00
2023-10-06T12:12:04.323Z,3000.00
2023-10-06T12:13:04.338Z,3280.00
2023-10-06T12:14:04.601Z,2804.00
2023-10-06T12:15:04.325Z,3364.00
2023-10-06T12:16:04.255Z,3444.00
2023-10-06T12:17:04.367Z,2640.00
2023-10-06T12:18:04.264Z,2944.00
2023-10-06T12:19:04.272Z,2356.00
2023-10-06T12:20:05.170Z,2540.00
2023-10-06T12:21:04.192Z,2964.00
2023-10-06T12:22:04.176Z,3220.00
2023-10-06T12:23:04.213Z,4176.00
2023-10-06T12:24:04.165Z,4292.00
2023-10-06T12:25:04.139Z,4596.00
2023-10-06T12:26:04.264Z,4604.00
2023-10-06T12:27:04.167Z,4448.00
2023-10-06T12:28:04.159Z,5652.00
2023-10-06T12:29:04.153Z,8048.00
2023-10-06T12:30:04.090Z,6180.00
2023-10-06T12:31:04.149Z,7100.00
2023-10-06T12:33:05.077Z,5500.00
2023-10-06T12:34:04.040Z,4976.00
2023-10-06T12:35:04.046Z,5336.00
2023-10-06T12:36:03.999Z,5808.00
2023-10-06T12:37:04.042Z,5936.00
2023-10-06T12:38:04.530Z,5116.00